San Antonio, Texas
Current Conditions -  °F | °C
As of 9:58 AM on Wednesday 26 Nov 2014 (Local Time) from KSKF Reporting Station
Clear Clear  
Wind Chill: 58°   Ceiling: Unl
Heat Index: 58°   Visibility: 10mi
Dew Point: 34°   Wind: 14mph
Humidity: 40%   Direction: 240°WSW
Pressure: 30.24"   Gusts: NA
Location:  29.42°N, 98.49°W
Report Text: KSKF 261558Z AUTO 24012KT 10SM CLR 14/01 A3024 RMK AO2 SLP240 T01430009 $
Loading
Personal Weather Stations






























Interactive Weather Map New forecast layout! Learn more

10-Day Weather Forecast

Advertisements
Track Severe Weather on mobile